Flight Track Log - Related Links

Times and Time Zones

All times are in EST time to prevent confusion due to time zone crossing. See the AAY861 flight status page for this flight to view local times or setup timezone preferences in your user account.

Time Position Orientation Groundspeed Altitude Reporting Facility
EST Latitude Longitude Course Direction KTS MPH feet Rate Location/Type
Fri 01:27:03 PM 38.0036 -84.6397 165° South 116 133 3,700  Level Indianapolis Center
Fri 01:28:05 PM 37.9492 -84.6447 184° South 226 260 5,500 1,839 Climbing Indianapolis Center
Fri 01:29:07 PM 37.8767 -84.6200 165° South 250 288 7,500 2,081 Climbing Indianapolis Center
Fri 01:30:09 PM 37.7842 -84.5842 163° South 285 328 9,800 1,805 Climbing Indianapolis Center
Fri 01:31:10 PM 37.6961 -84.5742 175° South 313 360 11,200 1,659 Climbing Indianapolis Center
Fri 01:32:00 PM 37.4820 -84.3328 165° South  Level FlightAware Approximate
Fri 01:32:12 PM 37.5961 -84.5706 178° South 349 402 13,200  Level Indianapolis Center
Fri 01:33:14 PM 37.4908 -84.5642 177° South 371 427 15,500 2,177 Climbing Indianapolis Center
Fri 01:34:16 PM 37.3817 -84.5594 178° South 386 444 17,700 2,129 Climbing Indianapolis Center
Fri 01:35:18 PM 37.2514 -84.5572 179° South 398 458 19,900 1,839 Climbing Indianapolis Center
Fri 01:36:20 PM 37.1364 -84.5519 178° South 408 470 21,500 1,306 Climbing Indianapolis Center
Fri 01:37:22 PM 37.0225 -84.5497 179° South 416 479 22,600 1,597 Climbing Indianapolis Center
Fri 01:38:24 PM 36.9036 -84.5453 178° South 424 488 24,800 1,839 Climbing Indianapolis Center
Fri 01:39:26 PM 36.7872 -84.5419 179° South 423 487 26,400 1,403 Climbing Indianapolis Center
Fri 01:40:28 PM 36.6717 -84.5383 179° South 420 483 27,700 1,512 Climbing Indianapolis Center
Fri 01:41:29 PM 36.5344 -84.5325 178° South 414 476 29,500 1,415 Climbing Indianapolis Center
Fri 01:42:31 PM 36.4214 -84.5264 178° South 411 473 30,600 726 Climbing Indianapolis Center
Fri 01:43:33 PM 36.3075 -84.5244 179° South 411 473 31,000 194 Climbing Indianapolis Center
Fri 01:44:35 PM 36.1919 -84.5203 178° South 411 473 31,000  Level Indianapolis Center
Fri 01:45:15 PM 36.1178 -84.5169 178° South 410 472 31,000  Level Atlanta Center
Fri 01:46:15 PM 36.0053 -84.5161 180° South 410 472 31,000  Level Atlanta Center
Fri 01:47:15 PM 35.8864 -84.5103 178° South 415 478 31,000  Level Atlanta Center
Fri 01:48:15 PM 35.7736 -84.5072 179° South 415 478 31,000  Level Atlanta Center
Fri 01:49:15 PM 35.6589 -84.5039 179° South 420 483 31,000  Level Atlanta Center
Fri 01:50:15 PM 35.5442 -84.4981 178° South 420 483 31,000  Level Atlanta Center
Fri 01:51:15 PM 35.4317 -84.4950 179° South 415 478 31,000  Level Atlanta Center
Fri 01:52:15 PM 35.3189 -84.4944 180° South 415 478 31,000  Level Atlanta Center
Fri 01:53:15 PM 35.2042 -84.4886 178° South 415 478 31,000  Level Atlanta Center
Fri 01:54:15 PM 35.0936 -84.4831 178° South 415 478 31,000  Level Atlanta Center
Fri 01:55:15 PM 34.9747 -84.4797 179° South 402 463 31,000  Level Atlanta Center
Fri 01:56:15 PM 34.8619 -84.4742 178° South 402 463 31,000  Level Atlanta Center
Fri 01:57:15 PM 34.7536 -84.4711 179° South 402 463 31,000  Level Atlanta Center
Fri 01:58:15 PM 34.6533 -84.4656 177° South 402 463 31,000  Level Atlanta Center
Fri 01:59:15 PM 34.5408 -84.4625 179° South 402 463 31,000  Level Atlanta Center
Fri 02:00:15 PM 34.4300 -84.4594 179° South 402 463 31,000  Level Atlanta Center
Fri 02:01:15 PM 34.3153 -84.4564 179° South 402 463 31,000  Level Atlanta Center
Fri 02:02:15 PM 34.2069 -84.4533 179° South 402 463 31,000  Level Atlanta Center
Fri 02:03:15 PM 34.0775 -84.4525 180° South 410 472 31,000  Level Atlanta Center
Fri 02:04:15 PM 33.9689 -84.4497 179° South 410 472 31,000  Level Atlanta Center
Fri 02:05:15 PM 33.8542 -84.4467 179° South 397 457 31,000  Level Atlanta Center
Fri 02:06:15 PM 33.7478 -84.4411 178° South 402 463 31,000  Level Atlanta Center
Fri 02:07:15 PM 33.6328 -84.4381 179° South 402 463 31,000  Level Atlanta Center
Fri 02:08:15 PM 33.5264 -84.4350 179° South 407 468 31,000  Level Atlanta Center
Fri 02:09:15 PM 33.4136 -84.4344 180° South 407 468 31,000  Level Atlanta Center
Fri 02:10:15 PM 33.3031 -84.4342 180° South 401 461 31,000  Level Atlanta Center
Fri 02:11:15 PM 33.1883 -84.4311 179° South 407 468 31,000  Level Atlanta Center
Fri 02:12:15 PM 33.0756 -84.4306 180° South 407 468 31,000  Level Atlanta Center
Fri 02:13:15 PM 32.9525 -84.4275 179° South 413 475 31,000  Level Atlanta Center
Fri 02:14:15 PM 32.8356 -84.4269 180° South 413 475 31,000  Level Atlanta Center
Fri 02:15:15 PM 32.7228 -84.4192 177° South 418 481 31,000  Level Atlanta Center
Fri 02:16:15 PM 32.6228 -84.4186 180° South 418 481 31,000  Level Atlanta Center
Fri 02:17:15 PM 32.5078 -84.4133 178° South 413 475 31,000  Level Atlanta Center
Fri 02:18:15 PM 32.3931 -84.4103 179° South 413 475 31,000  Level Atlanta Center
Fri 02:19:15 PM 32.2803 -84.4097 180° South 413 475 31,000  Level Atlanta Center
Fri 02:20:15 PM 32.1531 -84.4069 179° South 413 475 31,000  Level Atlanta Center
Fri 02:21:19 PM 32.0322 -84.4047 179° South 417 480 31,000  Level Jacksonville Center
Fri 02:22:19 PM 31.9153 -84.4003 178° South 435 501 31,000  Level Jacksonville Center
Fri 02:23:19 PM 31.7986 -84.3983 179° South 435 501 31,000  Level Jacksonville Center
Fri 02:24:19 PM 31.6836 -84.3989 180° South 424 488 31,000  Level Jacksonville Center
Fri 02:25:19 PM 31.5647 -84.3947 178° South 419 482 31,000  Level Jacksonville Center
Fri 02:26:19 PM 31.4478 -84.3928 179° South 419 482 31,000  Level Jacksonville Center
Fri 02:27:19 PM 31.3292 -84.3689 170° South 419 482 31,000  Level Jacksonville Center
Fri 02:28:19 PM 31.2125 -84.3306 164° South 430 495 31,000  Level Jacksonville Center
Fri 02:29:19 PM 31.1064 -84.2925 163° South 430 495 31,000  Level Jacksonville Center
Fri 02:30:19 PM 30.9878 -84.2569 166° South 436 502 31,000  Level Jacksonville Center
Fri 02:31:18 PM 30.8714 -84.2214 165° South 436 502 31,000  Level Jacksonville Center
Fri 02:32:19 PM 30.7528 -84.1858 166° South 431 496 31,000  Level Jacksonville Center
Fri 02:33:19 PM 30.6342 -84.1481 165° South 431 496 31,000 -50 Level Jacksonville Center
Fri 02:34:19 PM 30.5092 -84.1078 164° South 431 496 30,900 -50 Descending Jacksonville Center
Fri 02:35:19 PM 30.3906 -84.0725 166° South 431 496 30,900 50 Level Jacksonville Center
Fri 02:36:19 PM 30.2678 -84.0350 165° South 436 502 31,000  Climbing Jacksonville Center
Fri 02:37:19 PM 30.1511 -83.9975 164° South 441 507 30,900 -50 Descending Jacksonville Center
Fri 02:38:19 PM 30.0325 -83.9603 165° South 441 507 30,900  Level Jacksonville Center
Fri 02:39:19 PM 29.9117 -83.9231 165° South 441 507 30,900 50 Level Jacksonville Center
Fri 02:40:19 PM 29.8033 -83.8858 163° South 446 513 31,000  Climbing Jacksonville Center
Fri 02:41:19 PM 29.6911 -83.8178 152° Southeast 457 526 30,900  Descending Jacksonville Center
Fri 02:42:19 PM 29.5722 -83.7928 170° South 452 520 31,000 -250 Climbing Jacksonville Center
Fri 02:43:19 PM 29.4592 -83.8300 196° South 420 483 30,400 -1,250 Descending Jacksonville Center
Fri 02:44:19 PM 29.3506 -83.8694 198° South 414 476 28,500 -2,000 Descending Jacksonville Center
Fri 02:45:19 PM 29.2397 -83.8706 181° South 409 471 26,400 -1,650 Descending Jacksonville Center
Fri 02:46:19 PM 29.1422 -83.7817 141° Southeast 388 447 25,200 -750 Descending Jacksonville Center
Fri 02:47:19 PM 29.0575 -83.6858 135° Southeast 406 467 24,900 -100 Descending Jacksonville Center
Fri 02:48:19 PM 28.9933 -83.5667 122° Southeast 421 484 25,000  Climbing Jacksonville Center
Fri 02:49:19 PM 28.9314 -83.4453 120° Southeast 432 497 24,900 -700 Descending Jacksonville Center
Fri 02:50:19 PM 28.8650 -83.3264 123° Southeast 443 510 23,600 -2,411 Descending Jacksonville Center
Fri 02:52:53 PM 28.5833 -83.1333 149° Southeast 432 497 16,300 -2,645 Descending Tampa TRACON
Fri 02:53:59 PM 28.4833 -83.0500 144° Southeast 399 459 13,900 -1,750 Descending Tampa TRACON
Fri 02:54:53 PM 28.4167 -83.0000 147° Southeast 343 395 12,800 -1,111 Descending Tampa TRACON
Fri 02:55:47 PM 28.3333 -82.9500 152° Southeast 307 353 11,900 -1,200 Descending Tampa TRACON
Fri 02:56:53 PM 28.2667 -82.8833 139° Southeast 292 336 10,400 -1,700 Descending Tampa TRACON
Fri 02:57:47 PM 28.2167 -82.8167 130° Southeast 283 326 8,500 -2,478 Descending Tampa TRACON
Fri 02:59:11 PM 28.1500 -82.7333 132° Southeast 278 320 4,700 -2,381 Descending Tampa TRACON
Fri 02:59:53 PM 28.1167 -82.7167 156° South 238 274 3,500 -1,313 Descending Tampa TRACON
Fri 03:00:47 PM 28.0500 -82.7167 180° South 189 217 2,600 -895 Descending Tampa TRACON
Fri 03:01:47 PM 28.0167 -82.7000 156° South 124 143 1,800 -714 Descending Tampa TRACON
Fri 03:02:53 PM 27.9833 -82.7000 180° South 124 143 1,100 -700 Descending Tampa TRACON
Fri 03:03:47 PM 27.9500 -82.7000 180° South 134 154 400 -778 Descending Tampa TRACON

Login

Don't have an account? Register now (free) for customized features, flight alerts, and more!